createdAt,value
2022-08-01T00:00:16.797Z,22.28
2022-08-01T00:02:45.934Z,22.27
2022-08-01T00:05:16.716Z,22.36
2022-08-01T00:07:46.023Z,22.41
2022-08-01T00:10:17.591Z,22.35
2022-08-01T00:12:47.337Z,22.23
2022-08-01T00:15:18.747Z,22.45
2022-08-01T00:17:47.883Z,22.45
2022-08-01T00:20:18.217Z,22.39
2022-08-01T00:22:47.252Z,22.36
2022-08-01T00:25:16.151Z,22.51
2022-08-01T00:27:45.318Z,22.61
2022-08-01T00:30:16.619Z,22.21
2022-08-01T00:32:45.591Z,22.02
2022-08-01T00:35:14.811Z,21.66
2022-08-01T00:37:45.217Z,21.64
2022-08-01T00:40:15.518Z,21.60
2022-08-01T00:42:44.552Z,21.65
2022-08-01T00:45:13.933Z,21.38
2022-08-01T00:47:42.960Z,21.18
2022-08-01T00:50:12.302Z,21.25
2022-08-01T00:52:42.444Z,20.92
2022-08-01T00:55:15.355Z,21.21
2022-08-01T00:58:02.549Z,21.06
2022-08-01T01:00:53.707Z,20.99
2022-08-01T01:03:58.204Z,21.03
2022-08-01T01:06:29.022Z,20.75
2022-08-01T01:09:10.959Z,20.71
2022-08-01T01:11:50.742Z,20.46
2022-08-01T01:14:29.945Z,20.49
2022-08-01T01:17:02.402Z,20.74
2022-08-01T01:19:35.524Z,20.31
2022-08-01T01:22:38.567Z,20.07
2022-08-01T01:25:20.587Z,20.05
2022-08-01T01:28:01.309Z,20.56
2022-08-01T01:30:35.188Z,20.81
2022-08-01T01:33:08.093Z,21.15
2022-08-01T01:35:41.080Z,20.33
2022-08-01T01:38:12.779Z,20.48
2022-08-01T01:40:43.970Z,20.73
2022-08-01T01:43:14.009Z,20.72
2022-08-01T01:45:47.742Z,20.51
2022-08-01T01:48:18.901Z,20.35
2022-08-01T01:50:49.876Z,20.48
2022-08-01T01:53:22.403Z,20.55
2022-08-01T01:55:54.916Z,20.49
2022-08-01T01:58:25.956Z,20.16
2022-08-01T02:00:59.051Z,20.75
2022-08-01T02:03:33.841Z,20.24
2022-08-01T02:06:05.145Z,20.48
2022-08-01T02:08:36.156Z,20.53
2022-08-01T02:11:22.433Z,20.52
2022-08-01T02:13:58.024Z,20.45
2022-08-01T02:16:33.910Z,20.04
2022-08-01T02:19:03.901Z,20.20
2022-08-01T02:21:37.146Z,19.77
2022-08-01T02:24:15.537Z,19.49
2022-08-01T02:26:49.928Z,19.42
2022-08-01T02:29:26.035Z,18.78
2022-08-01T02:31:57.784Z,18.54
2022-08-01T02:34:33.032Z,18.52
2022-08-01T02:37:03.209Z,18.40
2022-08-01T02:39:33.766Z,18.48
2022-08-01T02:42:08.713Z,19.07
2022-08-01T02:44:40.450Z,18.54
2022-08-01T02:47:11.433Z,18.30
2022-08-01T02:49:46.571Z,18.81
2022-08-01T02:52:25.574Z,18.83
2022-08-01T02:54:57.821Z,18.34
2022-08-01T02:57:32.809Z,18.26
2022-08-01T03:00:18.892Z,18.81
2022-08-01T03:02:51.843Z,19.02
2022-08-01T03:05:22.363Z,19.25
2022-08-01T03:07:54.025Z,18.88
2022-08-01T03:10:25.524Z,18.88
2022-08-01T03:12:56.864Z,19.27
2022-08-01T03:15:29.018Z,19.39
2022-08-01T03:18:02.024Z,19.03
2022-08-01T03:20:34.046Z,18.78
2022-08-01T03:23:07.620Z,18.38
2022-08-01T03:25:40.268Z,18.33
2022-08-01T03:28:11.097Z,18.66
2022-08-01T03:30:41.659Z,19.17
2022-08-01T03:33:14.512Z,19.54
2022-08-01T03:35:49.184Z,19.64
2022-08-01T03:38:22.056Z,19.31
2022-08-01T03:40:55.882Z,19.31
2022-08-01T03:43:29.647Z,19.40
2022-08-01T03:46:05.959Z,19.55
2022-08-01T03:48:41.640Z,19.61
2022-08-01T03:51:13.483Z,19.73
2022-08-01T03:53:44.509Z,19.75
2022-08-01T03:56:20.134Z,19.90
2022-08-01T03:58:50.020Z,19.76
2022-08-01T04:01:20.137Z,19.72
2022-08-01T04:03:51.033Z,19.71
2022-08-01T04:06:20.078Z,19.85
2022-08-01T04:08:56.767Z,19.81
2022-08-01T04:12:12.047Z,19.96
2022-08-01T04:14:41.666Z,19.88
2022-08-01T04:17:10.589Z,19.90
2022-08-01T04:19:41.110Z,19.77
2022-08-01T04:22:11.885Z,19.68
2022-08-01T04:24:41.838Z,19.90
2022-08-01T04:27:15.432Z,19.74
2022-08-01T04:29:45.141Z,19.74
2022-08-01T04:32:16.446Z,20.07
2022-08-01T04:34:48.526Z,20.27
2022-08-01T04:37:19.207Z,20.41
2022-08-01T04:39:50.773Z,20.43
2022-08-01T04:42:25.090Z,20.27
2022-08-01T04:44:59.230Z,19.71
2022-08-01T04:47:28.635Z,20.19
2022-08-01T04:49:59.167Z,20.24
2022-08-01T04:52:37.256Z,20.35
2022-08-01T04:55:08.273Z,19.86
2022-08-01T04:57:41.957Z,19.90
2022-08-01T05:00:11.759Z,20.53
2022-08-01T05:02:40.830Z,20.36
2022-08-01T05:05:13.628Z,20.11
2022-08-01T05:07:44.915Z,20.18
2022-08-01T05:10:14.734Z,20.03
2022-08-01T05:12:43.767Z,19.94
2022-08-01T05:15:15.525Z,20.62
2022-08-01T05:17:45.013Z,20.58
2022-08-01T05:20:15.567Z,20.89
2022-08-01T05:22:44.866Z,20.52
2022-08-01T05:25:14.632Z,20.67
2022-08-01T05:27:51.010Z,21.05
2022-08-01T05:30:20.334Z,20.97
2022-08-01T05:32:49.664Z,21.20
2022-08-01T05:35:20.006Z,21.35
2022-08-01T05:37:48.971Z,21.58
2022-08-01T05:40:17.941Z,21.66
2022-08-01T05:42:46.949Z,21.91
2022-08-01T05:45:15.929Z,21.99
2022-08-01T05:47:44.973Z,21.82
2022-08-01T05:50:13.964Z,21.79
2022-08-01T05:52:44.369Z,22.03
2022-08-01T05:55:13.458Z,21.98
2022-08-01T05:57:42.432Z,21.79
2022-08-01T06:00:13.866Z,21.93
2022-08-01T06:02:44.531Z,22.26
2022-08-01T06:05:13.816Z,22.24
2022-08-01T06:07:44.291Z,22.38
2022-08-01T06:10:13.303Z,22.57
2022-08-01T06:12:42.282Z,22.29
2022-08-01T06:15:12.104Z,22.53
2022-08-01T06:17:42.314Z,22.88
2022-08-01T06:20:12.619Z,23.41
2022-08-01T06:22:41.643Z,23.30
2022-08-01T06:25:12.411Z,23.88
2022-08-01T06:27:41.387Z,23.16
2022-08-01T06:30:10.931Z,23.80
2022-08-01T06:32:40.170Z,23.53
2022-08-01T06:35:10.203Z,23.20
2022-08-01T06:37:39.213Z,23.41
2022-08-01T06:40:16.647Z,23.63
2022-08-01T06:42:46.900Z,23.82
2022-08-01T06:45:16.999Z,23.56
2022-08-01T06:47:50.544Z,24.08
2022-08-01T06:50:20.293Z,23.75
2022-08-01T06:52:49.231Z,23.84
2022-08-01T06:55:20.821Z,24.14
2022-08-01T06:57:51.024Z,24.48
2022-08-01T07:00:23.438Z,24.34
2022-08-01T07:02:52.832Z,24.42
2022-08-01T07:05:22.336Z,23.53
2022-08-01T07:07:51.806Z,24.30
2022-08-01T07:10:22.238Z,25.09
2022-08-01T07:12:51.211Z,24.38
2022-08-01T07:15:23.096Z,24.33
2022-08-01T07:17:52.171Z,25.15
2022-08-01T07:20:21.149Z,25.49
2022-08-01T07:22:50.881Z,25.06
2022-08-01T07:25:21.244Z,25.36
2022-08-01T07:27:50.381Z,26.05
2022-08-01T07:30:19.366Z,27.02
2022-08-01T07:32:48.497Z,26.64
2022-08-01T07:35:17.880Z,26.83
2022-08-01T07:37:49.371Z,26.69
2022-08-01T07:40:19.799Z,26.63
2022-08-01T07:42:50.385Z,26.13
2022-08-01T07:45:19.955Z,26.61
2022-08-01T07:47:50.582Z,27.05
2022-08-01T07:50:19.681Z,26.28
2022-08-01T07:52:48.661Z,27.52
2022-08-01T07:55:17.567Z,27.56
2022-08-01T07:57:46.485Z,26.87
2022-08-01T08:00:17.677Z,27.91
2022-08-01T08:02:46.631Z,27.62
2022-08-01T08:05:15.450Z,25.67
2022-08-01T08:08:04.359Z,26.13
2022-08-01T08:10:33.470Z,26.89
2022-08-01T08:13:02.965Z,27.22
2022-08-01T08:15:33.260Z,27.51
2022-08-01T08:18:02.788Z,26.87
2022-08-01T08:20:31.812Z,25.03
2022-08-01T08:23:00.778Z,25.23
2022-08-01T08:25:29.907Z,26.74
2022-08-01T08:27:58.735Z,25.28
2022-08-01T08:30:27.623Z,25.27
2022-08-01T08:32:58.106Z,26.05
2022-08-01T08:35:40.456Z,27.94
2022-08-01T08:38:16.270Z,26.87
2022-08-01T08:40:45.166Z,26.34
2022-08-01T08:43:14.371Z,26.25
2022-08-01T08:45:58.813Z,26.15
2022-08-01T08:48:30.987Z,26.61
2022-08-01T08:51:02.597Z,26.48
2022-08-01T08:53:35.058Z,25.80
2022-08-01T08:56:04.805Z,26.00
2022-08-01T08:58:38.529Z,26.26
2022-08-01T09:01:08.297Z,25.74
2022-08-01T09:03:38.892Z,25.96
2022-08-01T09:06:07.983Z,25.82
2022-08-01T09:08:38.100Z,25.66
2022-08-01T09:11:06.920Z,26.00
2022-08-01T09:13:35.753Z,26.09
2022-08-01T09:16:06.730Z,25.64
2022-08-01T09:18:37.298Z,25.46
2022-08-01T09:21:17.406Z,25.86
2022-08-01T09:23:53.578Z,26.78
2022-08-01T09:26:31.059Z,26.79
2022-08-01T09:29:00.552Z,26.64
2022-08-01T09:31:38.564Z,27.05
2022-08-01T09:34:09.166Z,27.18
2022-08-01T09:36:56.979Z,26.55
2022-08-01T09:39:27.630Z,26.63
2022-08-01T09:41:58.476Z,26.36
2022-08-01T09:44:42.552Z,26.94
2022-08-01T09:47:15.571Z,27.68
2022-08-01T09:49:51.566Z,26.96
2022-08-01T09:52:25.644Z,27.57
2022-08-01T09:54:57.101Z,27.15
2022-08-01T09:57:26.513Z,28.13
2022-08-01T09:59:59.028Z,29.33
2022-08-01T10:02:32.462Z,29.01
2022-08-01T10:05:08.429Z,28.28
2022-08-01T10:07:58.253Z,27.29
2022-08-01T10:10:29.049Z,27.11
2022-08-01T10:13:01.434Z,27.10
2022-08-01T10:15:36.727Z,27.54
2022-08-01T10:18:16.406Z,27.32
2022-08-01T10:20:50.557Z,27.43
2022-08-01T10:23:21.486Z,27.80
2022-08-01T10:25:53.044Z,28.54
2022-08-01T10:28:25.552Z,27.75
2022-08-01T10:30:55.117Z,27.37
2022-08-01T10:33:50.734Z,27.59
2022-08-01T10:36:14.105Z,27.38
2022-08-01T10:38:44.586Z,28.09
2022-08-01T10:41:16.347Z,29.06
2022-08-01T10:43:47.125Z,28.88
2022-08-01T10:46:16.559Z,28.21
2022-08-01T10:48:54.292Z,27.55
2022-08-01T10:51:51.325Z,28.69
2022-08-01T10:54:15.392Z,27.99
2022-08-01T10:56:47.110Z,28.28
2022-08-01T10:59:29.072Z,30.46
2022-08-01T11:02:12.322Z,31.08
2022-08-01T11:04:52.182Z,31.10
2022-08-01T11:07:26.138Z,29.07
2022-08-01T11:10:14.622Z,28.05
2022-08-01T11:12:45.404Z,29.44
2022-08-01T11:15:29.513Z,29.85
2022-08-01T11:18:01.819Z,29.30
2022-08-01T11:20:32.610Z,28.98
2022-08-01T11:23:36.109Z,29.02
2022-08-01T11:26:14.947Z,28.97
2022-08-01T11:29:17.821Z,29.31
2022-08-01T11:31:38.318Z,28.92
2022-08-01T11:34:08.135Z,29.19
2022-08-01T11:39:26.463Z,29.45
2022-08-01T11:41:56.621Z,29.15
2022-08-01T11:44:31.214Z,29.63
2022-08-01T11:47:07.161Z,30.59
2022-08-01T11:49:58.922Z,30.21
2022-08-01T11:52:30.480Z,30.09
2022-08-01T11:55:09.817Z,29.26
2022-08-01T11:57:40.850Z,29.76
2022-08-01T12:00:15.522Z,30.40
2022-08-01T12:02:47.269Z,29.43
2022-08-01T12:05:21.586Z,29.05
2022-08-01T12:07:56.078Z,30.48
2022-08-01T12:10:26.773Z,31.09
2022-08-01T12:12:58.583Z,30.69
2022-08-01T12:15:34.725Z,32.16
2022-08-01T12:18:05.555Z,31.37
2022-08-01T12:20:36.820Z,29.95
2022-08-01T12:23:07.141Z,29.69
2022-08-01T12:25:36.759Z,30.12
2022-08-01T12:28:10.239Z,31.21
2022-08-01T12:30:40.071Z,29.85
2022-08-01T12:33:10.310Z,29.44
2022-08-01T12:35:40.502Z,31.27
2022-08-01T12:38:16.840Z,32.43
2022-08-01T12:40:47.584Z,33.35
2022-08-01T12:43:28.581Z,30.64
2022-08-01T12:46:01.239Z,30.01
2022-08-01T12:48:33.057Z,29.67
2022-08-01T12:51:03.337Z,31.38
2022-08-01T12:53:40.681Z,32.22
2022-08-01T12:56:12.459Z,32.82
2022-08-01T12:58:42.775Z,32.45
2022-08-01T13:01:13.296Z,32.78
2022-08-01T13:03:43.036Z,32.81
2022-08-01T13:06:13.711Z,32.46
2022-08-01T13:08:42.759Z,32.36
2022-08-01T13:11:15.410Z,32.65
2022-08-01T13:13:49.136Z,32.46
2022-08-01T13:16:30.832Z,30.59
2022-08-01T13:19:07.880Z,29.43
2022-08-01T13:21:53.300Z,29.86
2022-08-01T13:24:28.852Z,29.92
2022-08-01T13:27:01.431Z,29.96
2022-08-01T13:29:34.405Z,30.89
2022-08-01T13:32:27.856Z,32.08
2022-08-01T13:35:05.906Z,32.50
2022-08-01T13:37:34.932Z,32.00
2022-08-01T13:40:06.924Z,31.71
2022-08-01T13:42:36.245Z,32.15
2022-08-01T13:45:14.349Z,30.69
2022-08-01T13:48:03.869Z,29.92
2022-08-01T13:50:33.926Z,30.65
2022-08-01T13:53:03.022Z,31.56
2022-08-01T13:55:34.879Z,31.34
2022-08-01T13:58:05.076Z,30.89
2022-08-01T14:00:35.907Z,30.50
2022-08-01T14:03:05.380Z,29.41
2022-08-01T14:05:34.254Z,29.26
2022-08-01T14:08:03.205Z,29.20
2022-08-01T14:10:33.407Z,29.42
2022-08-01T14:13:02.261Z,29.07
2022-08-01T14:15:38.010Z,28.57
2022-08-01T14:18:10.984Z,28.66
2022-08-01T14:20:41.106Z,29.31
2022-08-01T14:23:10.263Z,29.45
2022-08-01T14:26:05.562Z,29.42
2022-08-01T14:28:29.618Z,29.24
2022-08-01T14:30:59.929Z,29.39
2022-08-01T14:33:31.894Z,30.50
2022-08-01T14:36:28.645Z,31.37
2022-08-01T14:38:52.178Z,31.99
2022-08-01T14:41:21.452Z,32.73
2022-08-01T14:43:50.526Z,32.78
2022-08-01T14:46:19.371Z,33.15
2022-08-01T14:48:49.842Z,33.29
2022-08-01T14:51:18.902Z,33.18
2022-08-01T14:53:52.980Z,32.13
2022-08-01T14:56:22.364Z,30.20
2022-08-01T14:58:51.184Z,30.10
2022-08-01T15:01:20.209Z,30.20
2022-08-01T15:03:51.716Z,30.42
2022-08-01T15:06:20.617Z,30.79
2022-08-01T15:08:49.550Z,30.26
2022-08-01T15:11:18.603Z,30.72
2022-08-01T15:14:07.442Z,31.62
2022-08-01T15:16:36.421Z,32.23
2022-08-01T15:19:06.726Z,30.64
2022-08-01T15:21:41.777Z,29.91
2022-08-01T15:24:11.442Z,30.60
2022-08-01T15:26:40.265Z,30.52
2022-08-01T15:29:09.184Z,30.92
2022-08-01T15:31:39.172Z,31.62
2022-08-01T15:34:09.498Z,31.99
2022-08-01T15:36:41.947Z,31.81
2022-08-01T15:39:12.606Z,31.01
2022-08-01T15:41:41.455Z,31.37
2022-08-01T15:44:10.701Z,31.50
2022-08-01T15:46:39.638Z,32.12
2022-08-01T15:49:10.112Z,31.44
2022-08-01T15:51:39.023Z,31.66
2022-08-01T15:54:11.600Z,32.13
2022-08-01T15:56:43.444Z,32.29
2022-08-01T15:59:12.600Z,31.40
2022-08-01T16:01:42.244Z,30.96
2022-08-01T16:04:12.633Z,30.91
2022-08-01T16:06:41.620Z,31.34
2022-08-01T16:09:18.371Z,31.67
2022-08-01T16:11:51.174Z,31.72
2022-08-01T16:14:21.678Z,31.00
2022-08-01T16:16:50.756Z,31.50
2022-08-01T16:19:21.013Z,31.40
2022-08-01T16:21:49.903Z,31.59
2022-08-01T16:24:18.794Z,31.56
2022-08-01T16:26:47.733Z,30.14
2022-08-01T16:29:16.525Z,29.75
2022-08-01T16:32:09.824Z,30.08
2022-08-01T16:34:35.763Z,29.98
2022-08-01T16:37:07.683Z,30.53
2022-08-01T16:39:36.800Z,30.04
2022-08-01T16:42:05.782Z,29.79
2022-08-01T16:44:35.018Z,29.54
2022-08-01T16:47:05.437Z,29.59
2022-08-01T16:49:36.280Z,29.37
2022-08-01T16:52:07.389Z,29.05
2022-08-01T16:54:36.693Z,28.84
2022-08-01T16:57:08.518Z,28.56
2022-08-01T16:59:41.583Z,28.56
2022-08-01T17:02:11.990Z,28.63
2022-08-01T17:04:42.519Z,28.69
2022-08-01T17:07:11.567Z,28.49
2022-08-01T17:09:43.536Z,28.48
2022-08-01T17:12:14.290Z,28.32
2022-08-01T17:14:51.858Z,28.27
2022-08-01T17:17:21.089Z,28.21
2022-08-01T17:19:51.599Z,27.82
2022-08-01T17:22:20.793Z,27.28
2022-08-01T17:24:51.148Z,27.66
2022-08-01T17:27:21.097Z,27.66
2022-08-01T17:29:49.904Z,27.39
2022-08-01T17:32:19.065Z,27.43
2022-08-01T17:34:48.467Z,27.36
2022-08-01T17:37:18.955Z,27.19
2022-08-01T17:39:47.992Z,27.26
2022-08-01T17:42:16.834Z,27.52
2022-08-01T17:44:48.780Z,27.20
2022-08-01T17:47:40.744Z,27.19
2022-08-01T17:50:09.716Z,27.24
2022-08-01T17:52:40.415Z,26.95
2022-08-01T17:55:55.249Z,26.93
2022-08-01T17:57:59.033Z,26.90
2022-08-01T18:00:28.626Z,26.67
2022-08-01T18:02:57.533Z,26.47
2022-08-01T18:05:36.767Z,26.25
2022-08-01T18:08:08.348Z,26.35
2022-08-01T18:10:40.051Z,26.44
2022-08-01T18:13:09.381Z,26.43
2022-08-01T18:15:38.787Z,26.03
2022-08-01T18:18:08.631Z,26.01
2022-08-01T18:20:37.451Z,26.21
2022-08-01T18:23:10.432Z,25.92
2022-08-01T18:25:39.721Z,25.83
2022-08-01T18:28:23.388Z,25.84
2022-08-01T18:30:58.166Z,25.77
2022-08-01T18:33:27.003Z,25.87
2022-08-01T18:36:01.619Z,25.92
2022-08-01T18:38:33.431Z,25.75
2022-08-01T18:41:05.603Z,25.81
2022-08-01T18:43:36.529Z,25.64
2022-08-01T18:46:06.514Z,25.61
2022-08-01T18:48:35.365Z,25.61
2022-08-01T18:51:04.386Z,25.44
2022-08-01T18:53:39.624Z,25.47
2022-08-01T18:56:12.458Z,25.36
2022-08-01T18:58:42.242Z,25.29
2022-08-01T19:01:11.610Z,25.33
2022-08-01T19:03:42.800Z,25.31
2022-08-01T19:06:12.416Z,25.21
2022-08-01T19:08:43.466Z,24.93
2022-08-01T19:11:12.649Z,24.88
2022-08-01T19:13:41.565Z,24.91
2022-08-01T19:16:10.669Z,24.85
2022-08-01T19:18:41.232Z,25.00
2022-08-01T19:21:10.083Z,24.97
2022-08-01T19:23:56.495Z,24.91
2022-08-01T19:26:28.236Z,24.74
2022-08-01T19:29:02.614Z,24.88
2022-08-01T19:31:31.578Z,24.82
2022-08-01T19:34:01.455Z,24.74
2022-08-01T19:36:30.439Z,24.76
2022-08-01T19:39:00.183Z,24.75
2022-08-01T19:41:32.215Z,24.67
2022-08-01T19:44:03.539Z,24.81
2022-08-01T19:46:32.827Z,24.81
2022-08-01T19:49:01.756Z,24.95
2022-08-01T19:51:34.109Z,24.96
2022-08-01T19:54:06.288Z,24.91
2022-08-01T19:56:40.868Z,25.04
2022-08-01T19:59:09.988Z,25.03
2022-08-01T20:01:38.890Z,25.01
2022-08-01T20:04:09.801Z,24.98
2022-08-01T20:06:39.291Z,24.85
2022-08-01T20:09:09.195Z,24.85
2022-08-01T20:11:40.338Z,24.98
2022-08-01T20:14:09.475Z,24.86
2022-08-01T20:16:38.425Z,24.78
2022-08-01T20:19:07.422Z,24.89
2022-08-01T20:21:37.714Z,24.63
2022-08-01T20:24:12.074Z,24.83
2022-08-01T20:26:42.887Z,24.62
2022-08-01T20:29:13.169Z,24.69
2022-08-01T20:31:44.383Z,24.80
2022-08-01T20:34:16.768Z,24.51
2022-08-01T20:36:54.359Z,24.32
2022-08-01T20:39:23.796Z,24.55
2022-08-01T20:42:00.102Z,24.52
2022-08-01T20:44:32.574Z,24.60
2022-08-01T20:47:04.993Z,24.37
2022-08-01T20:49:36.093Z,24.16
2022-08-01T20:52:11.132Z,24.26
2022-08-01T20:54:42.660Z,24.23
2022-08-01T20:57:20.459Z,24.49
2022-08-01T20:59:55.754Z,24.58
2022-08-01T21:02:37.371Z,24.34
2022-08-01T21:05:10.826Z,24.38
2022-08-01T21:07:44.112Z,24.20
2022-08-01T21:10:16.083Z,24.33
2022-08-01T21:12:51.583Z,24.41
2022-08-01T21:15:28.355Z,24.29
2022-08-01T21:18:02.536Z,24.14
2022-08-01T21:20:33.897Z,24.13
2022-08-01T21:23:11.287Z,23.99
2022-08-01T21:25:42.676Z,24.03
2022-08-01T21:28:14.659Z,23.92
2022-08-01T21:30:53.864Z,23.93
2022-08-01T21:33:26.856Z,23.84
2022-08-01T21:36:01.277Z,23.74
2022-08-01T21:38:34.377Z,23.83
2022-08-01T21:41:05.309Z,23.93
2022-08-01T21:43:37.549Z,23.83
2022-08-01T21:46:06.671Z,23.70
2022-08-01T21:48:37.070Z,23.72
2022-08-01T21:51:16.904Z,23.74
2022-08-01T21:53:52.444Z,23.59
2022-08-01T21:56:31.968Z,23.83
2022-08-01T21:59:12.902Z,24.01
2022-08-01T22:01:52.398Z,24.13
2022-08-01T22:04:33.587Z,23.81
2022-08-01T22:07:04.600Z,23.70
2022-08-01T22:09:34.531Z,23.82
2022-08-01T22:12:06.973Z,23.71
2022-08-01T22:14:43.430Z,23.75
2022-08-01T22:17:18.300Z,23.83
2022-08-01T22:19:51.902Z,23.88
2022-08-01T22:22:51.893Z,23.67
2022-08-01T22:25:12.380Z,23.87
2022-08-01T22:28:08.652Z,23.62
2022-08-01T22:30:35.720Z,23.37
2022-08-01T22:33:15.091Z,23.06
2022-08-01T22:35:47.772Z,22.61
2022-08-01T22:38:19.773Z,22.03
2022-08-01T22:40:52.638Z,22.30
2022-08-01T22:43:31.759Z,22.55
2022-08-01T22:46:25.252Z,22.64
2022-08-01T22:49:01.040Z,22.64
2022-08-01T22:51:43.871Z,22.13
2022-08-01T22:54:28.426Z,21.63
2022-08-01T22:56:58.421Z,21.89
2022-08-01T22:59:43.103Z,21.93
2022-08-01T23:02:17.298Z,22.00
2022-08-01T23:04:48.579Z,22.03
2022-08-01T23:07:21.700Z,22.15
2022-08-01T23:09:53.955Z,22.33
2022-08-01T23:12:26.349Z,22.31
2022-08-01T23:14:56.580Z,22.14
2022-08-01T23:17:29.578Z,21.92
2022-08-01T23:20:00.471Z,22.16
2022-08-01T23:22:32.478Z,22.18
2022-08-01T23:25:06.012Z,21.92
2022-08-01T23:27:51.501Z,22.01
2022-08-01T23:30:27.737Z,21.96
2022-08-01T23:32:58.739Z,21.38
2022-08-01T23:35:28.212Z,20.99
2022-08-01T23:37:58.422Z,20.62
2022-08-01T23:40:32.448Z,20.53
2022-08-01T23:43:02.380Z,20.56
2022-08-01T23:45:58.510Z,20.86
2022-08-01T23:48:21.883Z,21.34
2022-08-01T23:50:53.005Z,21.21
2022-08-01T23:53:21.954Z,20.83
2022-08-01T23:55:50.825Z,20.99
2022-08-01T23:58:23.119Z,21.01
